sensor_id;sensor_type;location;lat;lon;timestamp;P1;durP1;ratioP1;P2;durP2;ratioP2
55150;SDS011;41041;43.162;20.538;2024-03-07T00:00:35;147.48;;;48.78;;
55150;SDS011;41041;43.162;20.538;2024-03-07T00:03:01;47.95;;;24.13;;
55150;SDS011;41041;43.162;20.538;2024-03-07T00:05:28;41.85;;;23.20;;
55150;SDS011;41041;43.162;20.538;2024-03-07T00:07:54;32.38;;;19.15;;
55150;SDS011;41041;43.162;20.538;2024-03-07T00:10:20;34.38;;;20.60;;
55150;SDS011;41041;43.162;20.538;2024-03-07T00:12:48;47.20;;;24.25;;
55150;SDS011;41041;43.162;20.538;2024-03-07T00:15:14;43.10;;;23.08;;
55150;SDS011;41041;43.162;20.538;2024-03-07T00:17:40;39.67;;;22.02;;
55150;SDS011;41041;43.162;20.538;2024-03-07T00:20:07;35.92;;;21.05;;
55150;SDS011;41041;43.162;20.538;2024-03-07T00:22:43;35.22;;;20.85;;
55150;SDS011;41041;43.162;20.538;2024-03-07T00:25:09;37.95;;;22.13;;
55150;SDS011;41041;43.162;20.538;2024-03-07T00:27:36;37.17;;;21.92;;
55150;SDS011;41041;43.162;20.538;2024-03-07T00:30:06;40.13;;;22.63;;
55150;SDS011;41041;43.162;20.538;2024-03-07T00:32:33;39.25;;;22.55;;
55150;SDS011;41041;43.162;20.538;2024-03-07T00:35:04;39.40;;;23.08;;
55150;SDS011;41041;43.162;20.538;2024-03-07T00:37:30;35.75;;;21.83;;
55150;SDS011;41041;43.162;20.538;2024-03-07T00:39:57;35.60;;;21.98;;
55150;SDS011;41041;43.162;20.538;2024-03-07T00:42:23;40.42;;;21.35;;
55150;SDS011;41041;43.162;20.538;2024-03-07T00:44:49;36.58;;;20.00;;
55150;SDS011;41041;43.162;20.538;2024-03-07T00:47:15;33.15;;;19.60;;
55150;SDS011;41041;43.162;20.538;2024-03-07T00:49:43;35.47;;;20.67;;
55150;SDS011;41041;43.162;20.538;2024-03-07T00:52:11;36.22;;;20.80;;
55150;SDS011;41041;43.162;20.538;2024-03-07T00:54:37;41.13;;;22.10;;
55150;SDS011;41041;43.162;20.538;2024-03-07T00:57:04;47.25;;;25.58;;
55150;SDS011;41041;43.162;20.538;2024-03-07T00:59:30;40.03;;;23.42;;
55150;SDS011;41041;43.162;20.538;2024-03-07T01:01:56;42.60;;;23.02;;
55150;SDS011;41041;43.162;20.538;2024-03-07T01:04:22;41.90;;;23.92;;
55150;SDS011;41041;43.162;20.538;2024-03-07T01:11:47;34.00;;;19.73;;
55150;SDS011;41041;43.162;20.538;2024-03-07T01:17:24;33.83;;;19.58;;
55150;SDS011;41041;43.162;20.538;2024-03-07T01:22:54;39.05;;;22.70;;
55150;SDS011;41041;43.162;20.538;2024-03-07T01:25:21;37.67;;;21.83;;
55150;SDS011;41041;43.162;20.538;2024-03-07T01:27:48;38.22;;;21.88;;
55150;SDS011;41041;43.162;20.538;2024-03-07T01:30:14;34.47;;;19.80;;
55150;SDS011;41041;43.162;20.538;2024-03-07T01:32:40;31.48;;;19.52;;
55150;SDS011;41041;43.162;20.538;2024-03-07T01:35:06;34.35;;;18.88;;
55150;SDS011;41041;43.162;20.538;2024-03-07T01:37:33;31.75;;;18.95;;
55150;SDS011;41041;43.162;20.538;2024-03-07T01:39:59;33.42;;;18.55;;
55150;SDS011;41041;43.162;20.538;2024-03-07T01:42:30;29.00;;;18.02;;
55150;SDS011;41041;43.162;20.538;2024-03-07T01:44:56;28.73;;;16.35;;
55150;SDS011;41041;43.162;20.538;2024-03-07T01:47:22;26.10;;;15.93;;
55150;SDS011;41041;43.162;20.538;2024-03-07T01:49:48;24.60;;;15.02;;
55150;SDS011;41041;43.162;20.538;2024-03-07T01:52:14;27.38;;;14.75;;
55150;SDS011;41041;43.162;20.538;2024-03-07T01:54:41;22.33;;;12.27;;
55150;SDS011;41041;43.162;20.538;2024-03-07T01:57:07;11.68;;;7.18;;
55150;SDS011;41041;43.162;20.538;2024-03-07T01:59:33;16.67;;;8.10;;
55150;SDS011;41041;43.162;20.538;2024-03-07T02:02:01;10.43;;;5.90;;
55150;SDS011;41041;43.162;20.538;2024-03-07T02:04:27;12.63;;;6.28;;
55150;SDS011;41041;43.162;20.538;2024-03-07T02:06:54;15.80;;;10.07;;
55150;SDS011;41041;43.162;20.538;2024-03-07T02:09:21;20.48;;;11.77;;
55150;SDS011;41041;43.162;20.538;2024-03-07T02:11:49;26.48;;;14.63;;
55150;SDS011;41041;43.162;20.538;2024-03-07T02:14:16;27.85;;;16.73;;
55150;SDS011;41041;43.162;20.538;2024-03-07T02:16:42;27.23;;;16.73;;
55150;SDS011;41041;43.162;20.538;2024-03-07T02:19:10;21.55;;;12.63;;
55150;SDS011;41041;43.162;20.538;2024-03-07T02:21:39;16.23;;;9.25;;
55150;SDS011;41041;43.162;20.538;2024-03-07T02:24:05;13.35;;;8.27;;
55150;SDS011;41041;43.162;20.538;2024-03-07T02:26:31;12.45;;;7.40;;
55150;SDS011;41041;43.162;20.538;2024-03-07T02:28:58;13.07;;;7.63;;
55150;SDS011;41041;43.162;20.538;2024-03-07T02:31:24;14.32;;;8.25;;
55150;SDS011;41041;43.162;20.538;2024-03-07T02:34:00;12.15;;;7.22;;
55150;SDS011;41041;43.162;20.538;2024-03-07T02:36:28;8.07;;;5.40;;
55150;SDS011;41041;43.162;20.538;2024-03-07T02:38:54;11.48;;;5.65;;
55150;SDS011;41041;43.162;20.538;2024-03-07T02:41:20;9.52;;;5.40;;
55150;SDS011;41041;43.162;20.538;2024-03-07T02:43:46;11.77;;;6.25;;
55150;SDS011;41041;43.162;20.538;2024-03-07T02:46:12;14.52;;;7.85;;
55150;SDS011;41041;43.162;20.538;2024-03-07T02:48:38;11.35;;;7.47;;
55150;SDS011;41041;43.162;20.538;2024-03-07T02:51:05;13.05;;;7.53;;
55150;SDS011;41041;43.162;20.538;2024-03-07T02:53:31;11.55;;;7.20;;
55150;SDS011;41041;43.162;20.538;2024-03-07T02:55:58;11.98;;;6.78;;
55150;SDS011;41041;43.162;20.538;2024-03-07T02:58:24;8.10;;;5.25;;
55150;SDS011;41041;43.162;20.538;2024-03-07T03:00:57;8.88;;;5.32;;
55150;SDS011;41041;43.162;20.538;2024-03-07T03:03:25;10.45;;;5.70;;
55150;SDS011;41041;43.162;20.538;2024-03-07T03:05:51;8.07;;;5.30;;
55150;SDS011;41041;43.162;20.538;2024-03-07T03:08:17;5.97;;;4.25;;
55150;SDS011;41041;43.162;20.538;2024-03-07T03:10:43;7.53;;;4.03;;
55150;SDS011;41041;43.162;20.538;2024-03-07T03:13:09;8.45;;;4.78;;
55150;SDS011;41041;43.162;20.538;2024-03-07T03:15:36;8.95;;;4.95;;
55150;SDS011;41041;43.162;20.538;2024-03-07T03:18:04;9.18;;;5.88;;
55150;SDS011;41041;43.162;20.538;2024-03-07T03:20:31;8.57;;;5.18;;
55150;SDS011;41041;43.162;20.538;2024-03-07T03:23:07;7.53;;;4.80;;
55150;SDS011;41041;43.162;20.538;2024-03-07T03:25:38;9.48;;;5.03;;
55150;SDS011;41041;43.162;20.538;2024-03-07T03:28:07;9.45;;;5.53;;
55150;SDS011;41041;43.162;20.538;2024-03-07T03:30:37;7.68;;;5.00;;
55150;SDS011;41041;43.162;20.538;2024-03-07T03:33:04;12.35;;;6.05;;
55150;SDS011;41041;43.162;20.538;2024-03-07T03:35:33;10.95;;;6.13;;
55150;SDS011;41041;43.162;20.538;2024-03-07T03:38:00;10.00;;;6.15;;
55150;SDS011;41041;43.162;20.538;2024-03-07T03:40:26;12.02;;;6.28;;
55150;SDS011;41041;43.162;20.538;2024-03-07T03:42:53;12.38;;;6.75;;
55150;SDS011;41041;43.162;20.538;2024-03-07T03:45:19;11.75;;;7.25;;
55150;SDS011;41041;43.162;20.538;2024-03-07T03:47:46;12.70;;;7.47;;
55150;SDS011;41041;43.162;20.538;2024-03-07T03:50:14;12.45;;;6.57;;
55150;SDS011;41041;43.162;20.538;2024-03-07T03:52:40;11.93;;;6.45;;
55150;SDS011;41041;43.162;20.538;2024-03-07T03:55:06;12.10;;;7.05;;
55150;SDS011;41041;43.162;20.538;2024-03-07T03:57:45;13.48;;;6.93;;
55150;SDS011;41041;43.162;20.538;2024-03-07T04:00:14;10.27;;;6.50;;
55150;SDS011;41041;43.162;20.538;2024-03-07T04:02:42;10.30;;;6.10;;
55150;SDS011;41041;43.162;20.538;2024-03-07T04:05:09;11.30;;;6.15;;
55150;SDS011;41041;43.162;20.538;2024-03-07T04:07:35;10.32;;;6.70;;
55150;SDS011;41041;43.162;20.538;2024-03-07T04:10:02;10.88;;;6.75;;
55150;SDS011;41041;43.162;20.538;2024-03-07T04:12:28;9.77;;;5.55;;
55150;SDS011;41041;43.162;20.538;2024-03-07T04:14:54;6.30;;;4.30;;
55150;SDS011;41041;43.162;20.538;2024-03-07T04:17:21;8.18;;;5.10;;
55150;SDS011;41041;43.162;20.538;2024-03-07T04:19:47;7.13;;;4.75;;
55150;SDS011;41041;43.162;20.538;2024-03-07T04:22:13;8.60;;;4.75;;
55150;SDS011;41041;43.162;20.538;2024-03-07T04:24:39;5.35;;;3.60;;
55150;SDS011;41041;43.162;20.538;2024-03-07T04:27:06;8.20;;;4.00;;
55150;SDS011;41041;43.162;20.538;2024-03-07T04:29:32;5.43;;;3.47;;
55150;SDS011;41041;43.162;20.538;2024-03-07T04:31:59;6.25;;;3.80;;
55150;SDS011;41041;43.162;20.538;2024-03-07T04:34:29;6.53;;;3.65;;
55150;SDS011;41041;43.162;20.538;2024-03-07T04:37:01;7.00;;;4.23;;
55150;SDS011;41041;43.162;20.538;2024-03-07T04:39:27;6.20;;;3.67;;
55150;SDS011;41041;43.162;20.538;2024-03-07T04:42:00;7.13;;;3.40;;
55150;SDS011;41041;43.162;20.538;2024-03-07T04:44:29;7.05;;;4.07;;
55150;SDS011;41041;43.162;20.538;2024-03-07T04:46:55;8.95;;;4.38;;
55150;SDS011;41041;43.162;20.538;2024-03-07T04:49:22;7.25;;;4.30;;
55150;SDS011;41041;43.162;20.538;2024-03-07T04:51:52;8.88;;;4.00;;
55150;SDS011;41041;43.162;20.538;2024-03-07T04:54:18;6.72;;;3.40;;
55150;SDS011;41041;43.162;20.538;2024-03-07T04:56:45;5.38;;;3.58;;
55150;SDS011;41041;43.162;20.538;2024-03-07T04:59:12;3.63;;;2.17;;
55150;SDS011;41041;43.162;20.538;2024-03-07T05:01:41;4.18;;;2.40;;
55150;SDS011;41041;43.162;20.538;2024-03-07T05:04:08;3.72;;;2.40;;
55150;SDS011;41041;43.162;20.538;2024-03-07T05:06:34;4.75;;;2.92;;
55150;SDS011;41041;43.162;20.538;2024-03-07T05:09:04;4.80;;;2.80;;
55150;SDS011;41041;43.162;20.538;2024-03-07T05:13:57;3.67;;;2.28;;
55150;SDS011;41041;43.162;20.538;2024-03-07T05:16:24;5.65;;;2.58;;
55150;SDS011;41041;43.162;20.538;2024-03-07T05:18:50;3.17;;;1.60;;
55150;SDS011;41041;43.162;20.538;2024-03-07T05:21:18;3.65;;;2.50;;
55150;SDS011;41041;43.162;20.538;2024-03-07T05:23:59;5.45;;;2.70;;
55150;SDS011;41041;43.162;20.538;2024-03-07T05:26:28;8.27;;;4.95;;
55150;SDS011;41041;43.162;20.538;2024-03-07T05:29:02;7.75;;;4.40;;
55150;SDS011;41041;43.162;20.538;2024-03-07T05:31:33;5.90;;;3.63;;
55150;SDS011;41041;43.162;20.538;2024-03-07T05:33:59;5.55;;;3.08;;
55150;SDS011;41041;43.162;20.538;2024-03-07T05:36:29;4.82;;;3.13;;
55150;SDS011;41041;43.162;20.538;2024-03-07T05:38:55;7.88;;;3.45;;
55150;SDS011;41041;43.162;20.538;2024-03-07T05:41:22;5.78;;;2.88;;
55150;SDS011;41041;43.162;20.538;2024-03-07T05:43:48;4.53;;;2.90;;
55150;SDS011;41041;43.162;20.538;2024-03-07T05:46:16;5.60;;;3.45;;
55150;SDS011;41041;43.162;20.538;2024-03-07T05:48:42;6.20;;;3.78;;
55150;SDS011;41041;43.162;20.538;2024-03-07T05:51:23;5.93;;;3.40;;
55150;SDS011;41041;43.162;20.538;2024-03-07T05:53:49;7.15;;;3.35;;
55150;SDS011;41041;43.162;20.538;2024-03-07T05:56:16;5.05;;;3.08;;
55150;SDS011;41041;43.162;20.538;2024-03-07T05:58:43;8.70;;;3.50;;
55150;SDS011;41041;43.162;20.538;2024-03-07T06:01:09;6.25;;;3.75;;
55150;SDS011;41041;43.162;20.538;2024-03-07T06:03:36;5.85;;;3.88;;
55150;SDS011;41041;43.162;20.538;2024-03-07T06:06:03;8.52;;;5.07;;
55150;SDS011;41041;43.162;20.538;2024-03-07T06:08:31;6.63;;;3.75;;
55150;SDS011;41041;43.162;20.538;2024-03-07T06:10:57;7.18;;;4.72;;
55150;SDS011;41041;43.162;20.538;2024-03-07T06:13:27;12.73;;;8.00;;
55150;SDS011;41041;43.162;20.538;2024-03-07T06:15:53;9.93;;;5.82;;
55150;SDS011;41041;43.162;20.538;2024-03-07T06:18:19;6.80;;;4.60;;
55150;SDS011;41041;43.162;20.538;2024-03-07T06:20:45;9.02;;;5.38;;
55150;SDS011;41041;43.162;20.538;2024-03-07T06:23:13;8.43;;;4.95;;
55150;SDS011;41041;43.162;20.538;2024-03-07T06:25:41;8.30;;;4.55;;
55150;SDS011;41041;43.162;20.538;2024-03-07T06:28:19;6.57;;;4.25;;
55150;SDS011;41041;43.162;20.538;2024-03-07T06:30:46;5.53;;;3.60;;
55150;SDS011;41041;43.162;20.538;2024-03-07T06:33:12;7.70;;;4.03;;
55150;SDS011;41041;43.162;20.538;2024-03-07T06:35:45;5.38;;;3.30;;
55150;SDS011;41041;43.162;20.538;2024-03-07T06:38:12;4.65;;;3.53;;
55150;SDS011;41041;43.162;20.538;2024-03-07T06:40:39;5.63;;;3.38;;
55150;SDS011;41041;43.162;20.538;2024-03-07T06:43:05;5.90;;;3.70;;
55150;SDS011;41041;43.162;20.538;2024-03-07T06:45:32;6.40;;;3.83;;
55150;SDS011;41041;43.162;20.538;2024-03-07T06:47:58;8.63;;;4.78;;
55150;SDS011;41041;43.162;20.538;2024-03-07T06:50:25;9.27;;;5.13;;
55150;SDS011;41041;43.162;20.538;2024-03-07T06:53:03;7.43;;;5.10;;
55150;SDS011;41041;43.162;20.538;2024-03-07T06:55:31;7.60;;;5.50;;
55150;SDS011;41041;43.162;20.538;2024-03-07T06:58:01;9.63;;;5.10;;
55150;SDS011;41041;43.162;20.538;2024-03-07T07:00:30;8.82;;;5.13;;
55150;SDS011;41041;43.162;20.538;2024-03-07T07:03:01;7.70;;;4.65;;
55150;SDS011;41041;43.162;20.538;2024-03-07T07:05:30;8.77;;;4.93;;
55150;SDS011;41041;43.162;20.538;2024-03-07T07:07:56;8.65;;;5.45;;
55150;SDS011;41041;43.162;20.538;2024-03-07T07:10:22;11.75;;;6.10;;
55150;SDS011;41041;43.162;20.538;2024-03-07T07:12:51;10.23;;;7.10;;
55150;SDS011;41041;43.162;20.538;2024-03-07T07:15:19;14.88;;;9.43;;
55150;SDS011;41041;43.162;20.538;2024-03-07T07:17:46;19.02;;;11.80;;
55150;SDS011;41041;43.162;20.538;2024-03-07T07:20:18;13.65;;;8.77;;
55150;SDS011;41041;43.162;20.538;2024-03-07T07:22:50;11.82;;;8.10;;
55150;SDS011;41041;43.162;20.538;2024-03-07T07:25:27;12.73;;;8.23;;
55150;SDS011;41041;43.162;20.538;2024-03-07T07:27:56;13.35;;;8.55;;
55150;SDS011;41041;43.162;20.538;2024-03-07T07:30:23;18.90;;;11.57;;
55150;SDS011;41041;43.162;20.538;2024-03-07T07:32:52;11.75;;;7.68;;
55150;SDS011;41041;43.162;20.538;2024-03-07T07:35:19;15.10;;;9.55;;
55150;SDS011;41041;43.162;20.538;2024-03-07T07:37:46;14.88;;;9.60;;
55150;SDS011;41041;43.162;20.538;2024-03-07T07:40:14;23.40;;;16.02;;
55150;SDS011;41041;43.162;20.538;2024-03-07T07:42:46;13.17;;;8.53;;
55150;SDS011;41041;43.162;20.538;2024-03-07T07:45:13;17.65;;;12.10;;
55150;SDS011;41041;43.162;20.538;2024-03-07T07:47:40;14.70;;;10.07;;
55150;SDS011;41041;43.162;20.538;2024-03-07T07:55:13;15.15;;;8.25;;
55150;SDS011;41041;43.162;20.538;2024-03-07T08:00:34;16.20;;;11.45;;
55150;SDS011;41041;43.162;20.538;2024-03-07T08:03:02;20.88;;;12.98;;
55150;SDS011;41041;43.162;20.538;2024-03-07T08:05:31;13.80;;;8.50;;
55150;SDS011;41041;43.162;20.538;2024-03-07T08:08:20;13.60;;;9.35;;
55150;SDS011;41041;43.162;20.538;2024-03-07T08:10:49;18.58;;;11.23;;
55150;SDS011;41041;43.162;20.538;2024-03-07T08:13:16;15.68;;;9.60;;
55150;SDS011;41041;43.162;20.538;2024-03-07T08:15:42;17.23;;;8.63;;
55150;SDS011;41041;43.162;20.538;2024-03-07T08:18:08;14.75;;;9.35;;
55150;SDS011;41041;43.162;20.538;2024-03-07T08:20:45;24.95;;;9.52;;
55150;SDS011;41041;43.162;20.538;2024-03-07T08:23:11;7.88;;;4.60;;
55150;SDS011;41041;43.162;20.538;2024-03-07T08:25:38;12.38;;;5.43;;
55150;SDS011;41041;43.162;20.538;2024-03-07T08:28:05;11.15;;;5.45;;
55150;SDS011;41041;43.162;20.538;2024-03-07T08:30:31;8.43;;;4.72;;
55150;SDS011;41041;43.162;20.538;2024-03-07T08:33:01;7.70;;;4.38;;
55150;SDS011;41041;43.162;20.538;2024-03-07T08:35:30;4.47;;;2.60;;
55150;SDS011;41041;43.162;20.538;2024-03-07T08:37:56;6.03;;;3.00;;
55150;SDS011;41041;43.162;20.538;2024-03-07T08:40:29;5.97;;;2.25;;
55150;SDS011;41041;43.162;20.538;2024-03-07T08:42:59;2.80;;;1.85;;
55150;SDS011;41041;43.162;20.538;2024-03-07T08:45:26;5.75;;;2.65;;
55150;SDS011;41041;43.162;20.538;2024-03-07T08:47:53;4.95;;;2.47;;
55150;SDS011;41041;43.162;20.538;2024-03-07T08:50:22;3.28;;;2.00;;
55150;SDS011;41041;43.162;20.538;2024-03-07T08:55:52;4.55;;;1.70;;
55150;SDS011;41041;43.162;20.538;2024-03-07T08:58:18;6.57;;;2.67;;
55150;SDS011;41041;43.162;20.538;2024-03-07T09:00:47;5.95;;;2.42;;
55150;SDS011;41041;43.162;20.538;2024-03-07T09:03:17;13.40;;;4.60;;
55150;SDS011;41041;43.162;20.538;2024-03-07T09:05:43;5.55;;;1.75;;
55150;SDS011;41041;43.162;20.538;2024-03-07T09:08:12;6.97;;;1.48;;
55150;SDS011;41041;43.162;20.538;2024-03-07T09:10:38;5.35;;;2.10;;
55150;SDS011;41041;43.162;20.538;2024-03-07T09:13:06;4.07;;;2.05;;
55150;SDS011;41041;43.162;20.538;2024-03-07T09:15:46;7.03;;;2.20;;
55150;SDS011;41041;43.162;20.538;2024-03-07T09:18:18;6.20;;;2.05;;
55150;SDS011;41041;43.162;20.538;2024-03-07T09:20:50;3.35;;;1.33;;
55150;SDS011;41041;43.162;20.538;2024-03-07T09:23:27;4.65;;;1.58;;
55150;SDS011;41041;43.162;20.538;2024-03-07T09:25:53;3.50;;;1.48;;
55150;SDS011;41041;43.162;20.538;2024-03-07T09:28:26;5.78;;;2.08;;
55150;SDS011;41041;43.162;20.538;2024-03-07T09:31:28;5.47;;;1.92;;
55150;SDS011;41041;43.162;20.538;2024-03-07T09:33:57;5.63;;;1.83;;
55150;SDS011;41041;43.162;20.538;2024-03-07T09:36:29;7.97;;;1.50;;
55150;SDS011;41041;43.162;20.538;2024-03-07T09:39:14;3.80;;;1.30;;
55150;SDS011;41041;43.162;20.538;2024-03-07T09:41:41;6.40;;;2.60;;
55150;SDS011;41041;43.162;20.538;2024-03-07T09:44:12;5.45;;;2.50;;
55150;SDS011;41041;43.162;20.538;2024-03-07T09:46:55;4.38;;;1.20;;
55150;SDS011;41041;43.162;20.538;2024-03-07T09:49:30;8.95;;;2.50;;
55150;SDS011;41041;43.162;20.538;2024-03-07T09:55:19;9.20;;;1.73;;
55150;SDS011;41041;43.162;20.538;2024-03-07T09:57:49;7.65;;;1.52;;
55150;SDS011;41041;43.162;20.538;2024-03-07T10:03:12;4.38;;;1.45;;
55150;SDS011;41041;43.162;20.538;2024-03-07T10:05:41;3.53;;;1.30;;
55150;SDS011;41041;43.162;20.538;2024-03-07T10:11:16;3.95;;;1.00;;
55150;SDS011;41041;43.162;20.538;2024-03-07T10:13:43;3.42;;;1.20;;
55150;SDS011;41041;43.162;20.538;2024-03-07T10:16:18;12.45;;;2.08;;
55150;SDS011;41041;43.162;20.538;2024-03-07T10:22:05;6.70;;;1.60;;
55150;SDS011;41041;43.162;20.538;2024-03-07T10:24:31;3.08;;;1.40;;
55150;SDS011;41041;43.162;20.538;2024-03-07T10:27:00;4.00;;;1.60;;
55150;SDS011;41041;43.162;20.538;2024-03-07T10:29:30;5.25;;;1.77;;
55150;SDS011;41041;43.162;20.538;2024-03-07T10:32:10;7.90;;;2.33;;
55150;SDS011;41041;43.162;20.538;2024-03-07T10:34:40;6.78;;;2.40;;
55150;SDS011;41041;43.162;20.538;2024-03-07T10:37:19;6.10;;;2.33;;
55150;SDS011;41041;43.162;20.538;2024-03-07T10:43:20;5.22;;;1.27;;
55150;SDS011;41041;43.162;20.538;2024-03-07T10:45:49;6.60;;;1.42;;
55150;SDS011;41041;43.162;20.538;2024-03-07T10:48:21;3.15;;;1.40;;
55150;SDS011;41041;43.162;20.538;2024-03-07T10:51:06;3.95;;;1.38;;
55150;SDS011;41041;43.162;20.538;2024-03-07T10:59:38;3.45;;;1.20;;
55150;SDS011;41041;43.162;20.538;2024-03-07T11:02:24;6.72;;;2.20;;
55150;SDS011;41041;43.162;20.538;2024-03-07T11:05:54;4.57;;;1.30;;
55150;SDS011;41041;43.162;20.538;2024-03-07T11:08:21;6.85;;;2.00;;
55150;SDS011;41041;43.162;20.538;2024-03-07T11:10:55;6.15;;;1.95;;
55150;SDS011;41041;43.162;20.538;2024-03-07T11:13:36;2.63;;;1.15;;
55150;SDS011;41041;43.162;20.538;2024-03-07T11:16:41;4.35;;;2.00;;
55150;SDS011;41041;43.162;20.538;2024-03-07T11:19:20;2.47;;;1.15;;
55150;SDS011;41041;43.162;20.538;2024-03-07T11:21:53;8.00;;;2.38;;
55150;SDS011;41041;43.162;20.538;2024-03-07T11:24:29;3.42;;;1.20;;
55150;SDS011;41041;43.162;20.538;2024-03-07T11:26:59;3.25;;;1.20;;
55150;SDS011;41041;43.162;20.538;2024-03-07T11:29:39;3.95;;;1.45;;
55150;SDS011;41041;43.162;20.538;2024-03-07T11:32:11;4.60;;;1.00;;
55150;SDS011;41041;43.162;20.538;2024-03-07T11:34:41;3.53;;;1.10;;
55150;SDS011;41041;43.162;20.538;2024-03-07T11:37:16;2.00;;;1.02;;
55150;SDS011;41041;43.162;20.538;2024-03-07T11:44:47;2.60;;;0.98;;
55150;SDS011;41041;43.162;20.538;2024-03-07T11:47:14;2.88;;;1.45;;
55150;SDS011;41041;43.162;20.538;2024-03-07T11:49:41;2.38;;;1.10;;
55150;SDS011;41041;43.162;20.538;2024-03-07T11:52:08;3.47;;;1.30;;
55150;SDS011;41041;43.162;20.538;2024-03-07T11:54:41;2.55;;;0.93;;
55150;SDS011;41041;43.162;20.538;2024-03-07T11:57:20;2.38;;;0.90;;
55150;SDS011;41041;43.162;20.538;2024-03-07T11:59:51;3.13;;;1.20;;
55150;SDS011;41041;43.162;20.538;2024-03-07T12:02:18;5.25;;;1.45;;
55150;SDS011;41041;43.162;20.538;2024-03-07T12:04:48;3.10;;;1.20;;
55150;SDS011;41041;43.162;20.538;2024-03-07T12:07:18;5.17;;;1.70;;
55150;SDS011;41041;43.162;20.538;2024-03-07T12:09:48;5.18;;;1.67;;
55150;SDS011;41041;43.162;20.538;2024-03-07T12:12:21;4.35;;;1.80;;
55150;SDS011;41041;43.162;20.538;2024-03-07T12:20:56;4.00;;;0.73;;
55150;SDS011;41041;43.162;20.538;2024-03-07T12:26:27;2.78;;;1.13;;
55150;SDS011;41041;43.162;20.538;2024-03-07T12:28:55;2.63;;;1.33;;
55150;SDS011;41041;43.162;20.538;2024-03-07T12:31:22;1.48;;;0.80;;
55150;SDS011;41041;43.162;20.538;2024-03-07T12:36:53;2.22;;;1.15;;
55150;SDS011;41041;43.162;20.538;2024-03-07T12:39:24;3.15;;;1.00;;
55150;SDS011;41041;43.162;20.538;2024-03-07T12:41:57;1.48;;;0.50;;
55150;SDS011;41041;43.162;20.538;2024-03-07T12:47:29;14.73;;;4.90;;
55150;SDS011;41041;43.162;20.538;2024-03-07T12:49:56;14.85;;;4.75;;
55150;SDS011;41041;43.162;20.538;2024-03-07T12:52:24;8.00;;;2.88;;
55150;SDS011;41041;43.162;20.538;2024-03-07T12:54:51;7.00;;;3.03;;
55150;SDS011;41041;43.162;20.538;2024-03-07T12:57:21;4.22;;;2.10;;
55150;SDS011;41041;43.162;20.538;2024-03-07T12:59:48;3.85;;;1.70;;
55150;SDS011;41041;43.162;20.538;2024-03-07T13:02:15;2.38;;;0.70;;
55150;SDS011;41041;43.162;20.538;2024-03-07T13:04:41;3.70;;;0.80;;
55150;SDS011;41041;43.162;20.538;2024-03-07T13:07:09;8.32;;;1.20;;
55150;SDS011;41041;43.162;20.538;2024-03-07T13:09:35;18.55;;;6.10;;
55150;SDS011;41041;43.162;20.538;2024-03-07T13:12:03;7.60;;;2.60;;
55150;SDS011;41041;43.162;20.538;2024-03-07T13:14:34;3.60;;;2.10;;
55150;SDS011;41041;43.162;20.538;2024-03-07T13:17:01;2.88;;;1.75;;
55150;SDS011;41041;43.162;20.538;2024-03-07T13:19:28;4.80;;;2.28;;
55150;SDS011;41041;43.162;20.538;2024-03-07T13:21:54;3.58;;;2.13;;
55150;SDS011;41041;43.162;20.538;2024-03-07T13:24:24;3.17;;;1.95;;
55150;SDS011;41041;43.162;20.538;2024-03-07T13:29:56;2.83;;;1.45;;
55150;SDS011;41041;43.162;20.538;2024-03-07T13:32:22;6.30;;;4.13;;
55150;SDS011;41041;43.162;20.538;2024-03-07T13:34:49;3.20;;;2.05;;
55150;SDS011;41041;43.162;20.538;2024-03-07T13:37:15;8.13;;;1.55;;
55150;SDS011;41041;43.162;20.538;2024-03-07T13:39:43;3.78;;;1.30;;
55150;SDS011;41041;43.162;20.538;2024-03-07T13:42:12;6.38;;;1.38;;
55150;SDS011;41041;43.162;20.538;2024-03-07T13:44:38;2.60;;;1.23;;
55150;SDS011;41041;43.162;20.538;2024-03-07T13:47:12;4.82;;;1.23;;
55150;SDS011;41041;43.162;20.538;2024-03-07T13:53:02;6.30;;;1.25;;
55150;SDS011;41041;43.162;20.538;2024-03-07T14:01:09;2.47;;;1.05;;
55150;SDS011;41041;43.162;20.538;2024-03-07T14:31:48;8.23;;;4.93;;
55150;SDS011;41041;43.162;20.538;2024-03-07T14:36:50;7.43;;;4.65;;
55150;SDS011;41041;43.162;20.538;2024-03-07T14:39:18;5.07;;;2.95;;
55150;SDS011;41041;43.162;20.538;2024-03-07T14:44:23;3.22;;;1.48;;
55150;SDS011;41041;43.162;20.538;2024-03-07T14:46:52;2.50;;;1.10;;
55150;SDS011;41041;43.162;20.538;2024-03-07T14:49:19;2.65;;;1.30;;
55150;SDS011;41041;43.162;20.538;2024-03-07T14:51:45;2.15;;;0.90;;
55150;SDS011;41041;43.162;20.538;2024-03-07T14:54:14;37.30;;;14.98;;
55150;SDS011;41041;43.162;20.538;2024-03-07T14:56:41;7.22;;;3.38;;
55150;SDS011;41041;43.162;20.538;2024-03-07T14:59:08;5.35;;;2.40;;
55150;SDS011;41041;43.162;20.538;2024-03-07T15:01:34;1.95;;;1.10;;
55150;SDS011;41041;43.162;20.538;2024-03-07T15:04:03;1.98;;;0.73;;
55150;SDS011;41041;43.162;20.538;2024-03-07T15:06:32;1.13;;;0.77;;
55150;SDS011;41041;43.162;20.538;2024-03-07T15:08:59;2.53;;;1.17;;
55150;SDS011;41041;43.162;20.538;2024-03-07T15:11:34;8.20;;;2.85;;
55150;SDS011;41041;43.162;20.538;2024-03-07T15:14:01;8.57;;;4.15;;
55150;SDS011;41041;43.162;20.538;2024-03-07T15:16:29;5.80;;;3.20;;
55150;SDS011;41041;43.162;20.538;2024-03-07T15:19:02;5.10;;;2.35;;
55150;SDS011;41041;43.162;20.538;2024-03-07T15:21:32;4.20;;;1.65;;
55150;SDS011;41041;43.162;20.538;2024-03-07T15:23:58;7.35;;;3.35;;
55150;SDS011;41041;43.162;20.538;2024-03-07T15:31:28;6.93;;;3.03;;
55150;SDS011;41041;43.162;20.538;2024-03-07T15:33:56;7.18;;;2.80;;
55150;SDS011;41041;43.162;20.538;2024-03-07T15:36:23;7.03;;;3.20;;
55150;SDS011;41041;43.162;20.538;2024-03-07T15:38:50;4.95;;;3.00;;
55150;SDS011;41041;43.162;20.538;2024-03-07T15:41:17;7.47;;;3.63;;
55150;SDS011;41041;43.162;20.538;2024-03-07T15:43:43;9.98;;;4.30;;
55150;SDS011;41041;43.162;20.538;2024-03-07T15:46:12;8.15;;;4.30;;
55150;SDS011;41041;43.162;20.538;2024-03-07T15:48:40;13.52;;;8.00;;
55150;SDS011;41041;43.162;20.538;2024-03-07T15:51:06;17.33;;;8.38;;
55150;SDS011;41041;43.162;20.538;2024-03-07T15:53:35;10.98;;;5.78;;
55150;SDS011;41041;43.162;20.538;2024-03-07T15:56:02;7.25;;;2.92;;
55150;SDS011;41041;43.162;20.538;2024-03-07T15:58:28;7.60;;;3.60;;
55150;SDS011;41041;43.162;20.538;2024-03-07T16:00:54;5.55;;;3.20;;
55150;SDS011;41041;43.162;20.538;2024-03-07T16:03:21;6.10;;;3.00;;
55150;SDS011;41041;43.162;20.538;2024-03-07T16:05:48;7.68;;;3.40;;
55150;SDS011;41041;43.162;20.538;2024-03-07T16:08:14;5.90;;;3.03;;
55150;SDS011;41041;43.162;20.538;2024-03-07T16:10:43;6.30;;;2.90;;
55150;SDS011;41041;43.162;20.538;2024-03-07T16:13:11;5.22;;;2.50;;
55150;SDS011;41041;43.162;20.538;2024-03-07T16:15:39;5.72;;;2.60;;
55150;SDS011;41041;43.162;20.538;2024-03-07T16:18:06;4.10;;;2.10;;
55150;SDS011;41041;43.162;20.538;2024-03-07T16:20:34;3.58;;;1.83;;
55150;SDS011;41041;43.162;20.538;2024-03-07T16:23:00;4.00;;;1.60;;
55150;SDS011;41041;43.162;20.538;2024-03-07T16:25:29;7.38;;;1.92;;
55150;SDS011;41041;43.162;20.538;2024-03-07T16:27:56;3.17;;;1.75;;
55150;SDS011;41041;43.162;20.538;2024-03-07T16:30:23;4.68;;;1.70;;
55150;SDS011;41041;43.162;20.538;2024-03-07T16:32:50;3.05;;;1.90;;
55150;SDS011;41041;43.162;20.538;2024-03-07T16:35:23;4.63;;;1.50;;